createdAt,value
2023-03-12T00:01:18.234Z,96975.19189278888
2023-03-12T00:04:16.568Z,96974.32470774437
2023-03-12T00:07:16.879Z,96970.24570229684
2023-03-12T00:11:19.247Z,96971.66206827926
2023-03-12T00:14:17.081Z,96979.436485108
2023-03-12T00:17:17.108Z,96985.42815923433
2023-03-12T00:21:16.923Z,96998.99563314574
2023-03-12T00:24:17.424Z,97003.9635056861
2023-03-12T00:27:17.053Z,97011.45958474842
2023-03-12T00:31:18.840Z,97020.63097663771
2023-03-12T00:34:16.726Z,97028.20443937715
2023-03-12T00:37:16.751Z,97029.32201215714
2023-03-12T00:41:16.466Z,97033.27141703345
2023-03-12T00:44:16.811Z,97033.70157535015
2023-03-12T00:47:16.796Z,97034.46878961919
2023-03-12T00:51:17.059Z,97027.99150938321
2023-03-12T00:54:17.417Z,97027.44165864495
2023-03-12T00:57:17.301Z,97032.16161652349
2023-03-12T01:01:17.275Z,97033.33898586716
2023-03-12T01:04:18.285Z,97031.59632919174
2023-03-12T01:07:17.135Z,97035.23363310692
2023-03-12T01:11:19.145Z,97036.35403271185
2023-03-12T01:14:16.477Z,97031.91376440377
2023-03-12T01:17:16.497Z,97029.70737164054
2023-03-12T01:21:16.488Z,97032.99084428782
2023-03-12T01:24:16.912Z,97029.75589041138
2023-03-12T01:27:16.890Z,97032.62493551082
2023-03-12T01:31:18.561Z,97020.28600782141
2023-03-12T01:34:17.470Z,97019.52799762148
2023-03-12T01:37:17.132Z,97020.04734664678
2023-03-12T01:41:16.368Z,97015.3267037063
2023-03-12T01:44:16.757Z,97012.4421883641
2023-03-12T01:47:16.805Z,97013.44343033445
2023-03-12T01:51:18.300Z,97011.14302615038
2023-03-12T01:54:21.767Z,97006.21559515808
2023-03-12T01:57:22.168Z,97008.9124997424
2023-03-12T02:01:18.514Z,97006.65469865715
2023-03-12T02:04:21.004Z,97006.57468024919
2023-03-12T02:07:17.889Z,97002.30848580154
2023-03-12T02:11:16.046Z,97006.95560007318
2023-03-12T02:14:17.039Z,97003.26387626735
2023-03-12T02:17:16.504Z,97004.52166291763
2023-03-12T02:21:20.603Z,97009.57618072169
2023-03-12T02:24:26.198Z,97010.86577864322
2023-03-12T02:27:18.653Z,97009.41371360925
2023-03-12T02:31:21.012Z,97008.16806945279
2023-03-12T02:34:16.947Z,97015.2623551825
2023-03-12T02:37:17.727Z,97014.30432572133
2023-03-12T02:41:20.373Z,97015.79138896706
2023-03-12T02:44:18.933Z,97008.76729112923
2023-03-12T02:47:17.065Z,97013.90106604
2023-03-12T02:51:16.973Z,97018.11809286884
2023-03-12T02:54:19.468Z,97026.12759873114
2023-03-12T02:57:17.328Z,97031.60833715474
2023-03-12T03:01:17.404Z,97043.0171811379
2023-03-12T03:04:17.118Z,97046.85598934074
2023-03-12T03:07:17.123Z,97045.6431003017
2023-03-12T03:11:16.115Z,97049.08167453902
2023-03-12T03:14:16.863Z,97046.50462559248
2023-03-12T03:17:16.459Z,97048.80400305746
2023-03-12T03:21:17.682Z,97057.1525886926
2023-03-12T03:24:17.493Z,97062.96515303304
2023-03-12T03:27:16.515Z,97065.90070409393
2023-03-12T03:31:17.863Z,97064.18166697623
2023-03-12T03:34:17.353Z,97072.97086495499
2023-03-12T03:37:17.349Z,97077.83345146303
2023-03-12T03:41:18.495Z,97080.44681418552
2023-03-12T03:44:17.377Z,97080.90080875794
2023-03-12T03:47:17.327Z,97080.65368415441
2023-03-12T03:51:17.219Z,97086.39995333219
2023-03-12T03:54:17.360Z,97090.31306586727
2023-03-12T03:57:17.123Z,97090.86106994974
2023-03-12T04:01:16.720Z,97092.62202302908
2023-03-12T04:04:17.149Z,97100.66283081596
2023-03-12T04:07:17.311Z,97107.621684669
2023-03-12T04:11:19.326Z,97116.73372508795
2023-03-12T04:14:17.142Z,97119.52560910032
2023-03-12T04:17:17.034Z,97120.90524824723
2023-03-12T04:21:17.021Z,97121.56154661665
2023-03-12T04:24:17.687Z,97124.95585372177
2023-03-12T04:27:17.373Z,97119.04043461398
2023-03-12T04:31:17.041Z,97122.6038078187
2023-03-12T04:34:17.390Z,97135.01581245576
2023-03-12T04:37:17.555Z,97133.75967934667
2023-03-12T04:41:17.758Z,97137.25138115553
2023-03-12T04:44:17.141Z,97135.45987546488
2023-03-12T04:47:17.357Z,97130.16320079847
2023-03-12T04:51:16.198Z,97134.72944586143
2023-03-12T04:54:16.590Z,97139.79078566354
2023-03-12T04:57:16.660Z,97144.39600889538
2023-03-12T05:01:23.041Z,97149.3420850947
2023-03-12T05:04:17.465Z,97146.92559018066
2023-03-12T05:07:17.179Z,97152.13261441803
2023-03-12T05:11:17.061Z,97167.95350371314
2023-03-12T05:14:16.648Z,97174.38136184904
2023-03-12T05:17:16.693Z,97181.81056692911
2023-03-12T05:21:19.008Z,97189.44304926542
2023-03-12T05:24:17.142Z,97186.28152861803
2023-03-12T05:27:16.632Z,97187.94182686898
2023-03-12T05:31:17.714Z,97188.00063448801
2023-03-12T05:34:18.320Z,97194.55051184433
2023-03-12T05:37:17.596Z,97198.62851014061
2023-03-12T05:41:20.051Z,97205.43312152031
2023-03-12T05:44:16.512Z,97200.82787349893
2023-03-12T05:47:16.632Z,97203.76009172694
2023-03-12T05:51:17.540Z,97204.22837275142
2023-03-12T05:54:17.438Z,97214.63864389008
2023-03-12T05:57:16.953Z,97222.39232910874
2023-03-12T06:01:24.082Z,97230.3323582202
2023-03-12T06:04:17.524Z,97233.53742049799
2023-03-12T06:07:17.457Z,97231.17443973206
2023-03-12T06:11:17.703Z,97239.9937076466
2023-03-12T06:14:18.728Z,97249.26182155263
2023-03-12T06:17:20.355Z,97259.18685675626
2023-03-12T06:21:20.270Z,97267.61024719318
2023-03-12T06:24:16.941Z,97268.5024477527
2023-03-12T06:27:17.218Z,97270.8118881122
2023-03-12T06:31:17.484Z,97280.58009160454
2023-03-12T06:34:18.679Z,97284.7896773509
2023-03-12T06:37:16.899Z,97289.11142934341
2023-03-12T06:41:19.436Z,97287.90895847474
2023-03-12T06:44:17.993Z,97299.46287754657
2023-03-12T06:51:17.113Z,97306.70937652118
2023-03-12T06:54:16.771Z,97310.69516926345
2023-03-12T06:57:17.126Z,97312.87780708968
2023-03-12T07:01:17.634Z,97318.499822666
2023-03-12T07:04:16.958Z,97318.3857567289
2023-03-12T07:07:20.190Z,97324.21157117384
2023-03-12T07:11:18.030Z,97322.7595952864
2023-03-12T07:14:18.425Z,97316.37130020667
2023-03-12T07:17:19.068Z,97321.76695178881
2023-03-12T07:21:23.267Z,97329.91791164492
2023-03-12T07:24:23.552Z,97332.67393170777
2023-03-12T07:27:17.831Z,97337.95942533822
2023-03-12T07:31:18.009Z,97345.18851000194
2023-03-12T07:34:17.581Z,97348.75161699014
2023-03-12T07:37:17.291Z,97352.54515280291
2023-03-12T07:41:17.011Z,97357.2801081174
2023-03-12T07:44:16.685Z,97359.92015690413
2023-03-12T07:47:23.134Z,97362.43810543217
2023-03-12T07:51:16.348Z,97366.10229614547
2023-03-12T07:54:16.812Z,97366.95737387508
2023-03-12T07:57:17.470Z,97371.27445613194
2023-03-12T08:01:16.759Z,97376.57861233219
2023-03-12T08:04:17.300Z,97373.1604849335
2023-03-12T08:07:19.238Z,97381.75088269831
2023-03-12T08:11:17.570Z,97390.0192643082
2023-03-12T08:14:17.884Z,97395.89326279856
2023-03-12T08:17:19.530Z,97396.18925143316
2023-03-12T08:21:18.894Z,97399.073355257
2023-03-12T08:24:17.476Z,97398.00364236707
2023-03-12T08:27:17.131Z,97398.20189274415
2023-03-12T08:31:19.256Z,97403.92886850143
2023-03-12T08:34:17.952Z,97403.29599172785
2023-03-12T08:37:19.635Z,97410.49979779268
2023-03-12T08:41:19.174Z,97408.24624938049
2023-03-12T08:44:19.491Z,97413.02113755094
2023-03-12T08:47:18.447Z,97415.25840430387
2023-03-12T08:51:17.757Z,97420.42476455458
2023-03-12T08:54:18.907Z,97420.67948641116
2023-03-12T08:57:16.643Z,97425.27165317757
2023-03-12T09:01:16.275Z,97422.42329176601
2023-03-12T09:04:19.512Z,97422.89167597171
2023-03-12T09:07:22.029Z,97429.74932177212
2023-03-12T09:11:19.367Z,97436.05704985985
2023-03-12T09:15:01.528Z,97440.82292741971
2023-03-12T09:17:18.123Z,97442.64334817031
2023-03-12T09:21:18.133Z,97445.36596451107
2023-03-12T09:24:19.615Z,97450.62824091257
2023-03-12T09:27:17.250Z,97451.18607183424
2023-03-12T09:31:17.865Z,97449.12419189457
2023-03-12T09:34:19.977Z,97453.60089745684
2023-03-12T09:37:22.351Z,97453.15236598608
2023-03-12T09:41:20.337Z,97465.96493096136
2023-03-12T09:44:29.246Z,97457.62912350507
2023-03-12T09:47:28.674Z,97461.58873938888
2023-03-12T09:51:24.036Z,97461.76717375609
2023-03-12T09:54:27.570Z,97466.12716585954
2023-03-12T09:57:21.280Z,97460.08703833977
2023-03-12T10:01:29.597Z,97460.98401590627
2023-03-12T10:04:29.728Z,97463.0361903825
2023-03-12T10:07:25.170Z,97462.53312687266
2023-03-12T10:11:30.418Z,97462.7131699435
2023-03-12T10:14:32.290Z,97470.41268277267
2023-03-12T10:17:34.222Z,97469.29913855607
2023-03-12T10:21:25.556Z,97472.20792927752
2023-03-12T10:24:30.142Z,97468.0986859864
2023-03-12T10:27:17.995Z,97464.9609878786
2023-03-12T10:31:23.562Z,97467.99092502797
2023-03-12T10:34:24.921Z,97468.02201726269
2023-03-12T10:37:21.750Z,97468.00920298463
2023-03-12T10:41:21.015Z,97473.45121737718
2023-03-12T10:44:21.667Z,97474.5239425531
2023-03-12T10:47:31.058Z,97475.15569409169
2023-03-12T10:51:17.216Z,97478.64866701722
2023-03-12T10:54:22.494Z,97476.5295474742
2023-03-12T10:57:18.707Z,97474.44615055031
2023-03-12T11:01:21.858Z,97479.66733965294
2023-03-12T11:04:23.516Z,97474.84535794678
2023-03-12T11:07:22.043Z,97473.82861789735
2023-03-12T11:11:31.823Z,97478.52554487536
2023-03-12T11:14:18.841Z,97479.64916550546
2023-03-12T11:17:20.959Z,97466.87696526783
2023-03-12T11:21:19.395Z,97468.04922066984
2023-03-12T11:24:18.546Z,97462.97945644705
2023-03-12T11:27:36.153Z,97462.22398403671
2023-03-12T11:31:25.112Z,97459.61334571152
2023-03-12T11:34:23.645Z,97460.08168879752
2023-03-12T11:37:29.550Z,97456.11664302227
2023-03-12T11:41:34.526Z,97453.34555234053
2023-03-12T11:44:25.727Z,97448.41282944095
2023-03-12T11:47:34.940Z,97448.56622121786
2023-03-12T11:51:36.983Z,97448.41320261093
2023-03-12T11:54:41.264Z,97445.02940948728
2023-03-12T11:57:26.498Z,97450.14330509318
2023-03-12T12:01:31.232Z,97450.98561145167
2023-03-12T12:11:22.641Z,97446.99061650306
2023-03-12T12:14:32.692Z,97449.82640709
2023-03-12T12:17:25.158Z,97450.50460847084
2023-03-12T12:21:36.438Z,97452.41465516207
2023-03-12T12:24:34.092Z,97457.00293750264
2023-03-12T12:27:20.567Z,97452.05809471647
2023-03-12T12:31:26.501Z,97451.90440040782
2023-03-12T12:35:32.066Z,97445.80288329214
2023-03-12T12:37:30.479Z,97444.78887328276
2023-03-12T12:41:21.347Z,97450.19025604938
2023-03-12T12:44:21.050Z,97446.98417671936
2023-03-12T12:47:22.251Z,97452.42651415197
2023-03-12T12:51:19.962Z,97450.18613210194
2023-03-12T12:54:25.659Z,97452.9585823172
2023-03-12T12:57:23.989Z,97455.67286110246
2023-03-12T13:01:17.677Z,97461.25713069107
2023-03-12T13:04:26.146Z,97461.86032003305
2023-03-12T13:07:35.635Z,97463.61121112955
2023-03-12T13:11:38.669Z,97467.58802531046
2023-03-12T13:14:35.131Z,97469.20550286864
2023-03-12T13:17:25.418Z,97464.62140408796
2023-03-12T13:21:25.985Z,97476.87166119274
2023-03-12T13:24:23.878Z,97474.05855481238
2023-03-12T13:27:21.837Z,97474.27229558768
2023-03-12T13:31:49.289Z,97473.44775413239
2023-03-12T13:34:49.012Z,97466.54368864947
2023-03-12T13:37:27.067Z,97463.93679258629
2023-03-12T13:41:31.878Z,97471.49442409114
2023-03-12T13:44:39.187Z,97472.393400678
2023-03-12T13:47:22.411Z,97471.97805907705
2023-03-12T13:51:19.921Z,97478.63251479105
2023-03-12T13:54:19.585Z,97485.31983196776
2023-03-12T13:57:29.593Z,97483.18986255281
2023-03-12T14:01:20.923Z,97482.57506758925
2023-03-12T14:04:21.598Z,97492.08027861582
2023-03-12T14:07:32.831Z,97492.96866675287
2023-03-12T14:11:30.647Z,97500.3429681219
2023-03-12T14:14:32.302Z,97497.24013666011
2023-03-12T14:17:19.946Z,97497.40109807868
2023-03-12T14:21:17.875Z,97499.07213336561
2023-03-12T14:24:24.351Z,97506.42178318156
2023-03-12T14:27:21.151Z,97503.18820432962
2023-03-12T14:31:23.128Z,97514.93357053658
2023-03-12T14:34:20.261Z,97504.99543787041
2023-03-12T14:37:23.052Z,97502.61346745164
2023-03-12T14:41:21.598Z,97497.86029318186
2023-03-12T14:44:22.558Z,97506.45672804167
2023-03-12T14:47:17.581Z,97502.95809850714
2023-03-12T14:51:23.947Z,97501.9355926421
2023-03-12T14:54:18.171Z,97503.16945848195
2023-03-12T14:57:20.820Z,97505.65777171955
2023-03-12T15:01:19.541Z,97521.79635258357
2023-03-12T15:04:19.735Z,97517.74655946616
2023-03-12T15:07:21.276Z,97526.74743128268
2023-03-12T15:11:22.529Z,97529.28777842701
2023-03-12T15:14:17.242Z,97539.24785328418
2023-03-12T15:17:20.010Z,97540.18803323185
2023-03-12T15:21:17.264Z,97541.58365880283
2023-03-12T15:24:17.057Z,97541.5063557486
2023-03-12T15:27:31.878Z,97538.0444448186
2023-03-12T15:31:17.857Z,97542.13341170705
2023-03-12T15:34:29.081Z,97549.7170086844
2023-03-12T15:37:23.245Z,97553.3262106074
2023-03-12T15:41:19.966Z,97557.12116091183
2023-03-12T15:44:19.622Z,97560.07525495006
2023-03-12T15:47:20.160Z,97563.74793802224
2023-03-12T15:51:36.430Z,97573.97207127964
2023-03-12T15:54:25.985Z,97581.2660786398
2023-03-12T15:57:22.115Z,97586.1899857557
2023-03-12T16:01:18.613Z,97587.07032394853
2023-03-12T16:04:17.784Z,97586.37154593866
2023-03-12T16:07:17.494Z,97589.10715077711
2023-03-12T16:11:19.901Z,97598.75561837673
2023-03-12T16:14:20.283Z,97603.83885424172
2023-03-12T16:17:18.348Z,97603.04601753408
2023-03-12T16:21:16.708Z,97604.33338803935
2023-03-12T16:24:17.238Z,97606.37020963065
2023-03-12T16:27:23.656Z,97613.02213323468
2023-03-12T16:31:16.461Z,97625.90983147218
2023-03-12T16:34:16.757Z,97631.41988068572
2023-03-12T16:37:16.622Z,97638.02483435672
2023-03-12T16:41:18.685Z,97650.58299878183
2023-03-12T16:44:20.481Z,97655.25696953852
2023-03-12T16:47:17.292Z,97663.892750022
2023-03-12T16:51:17.231Z,97667.05261056068
2023-03-12T16:54:17.493Z,97676.14855679168
2023-03-12T16:57:26.778Z,97681.92225518427
2023-03-12T17:01:18.907Z,97693.20340692636
2023-03-12T17:04:16.933Z,97702.01566186617
2023-03-12T17:07:16.856Z,97716.54634969677
2023-03-12T17:11:20.364Z,97729.50534902676
2023-03-12T17:14:21.518Z,97735.24380894822
2023-03-12T17:17:17.618Z,97740.85806771016
2023-03-12T17:21:18.236Z,97753.30353549578
2023-03-12T17:24:17.436Z,97763.06447247596
2023-03-12T17:27:16.937Z,97771.31922762225
2023-03-12T17:31:17.154Z,97783.16552382284
2023-03-12T17:34:18.165Z,97787.52312085386
2023-03-12T17:37:17.479Z,97794.97556507932
2023-03-12T17:41:25.474Z,97800.25461796267
2023-03-12T17:44:17.183Z,97803.68703039647
2023-03-12T17:47:16.827Z,97809.2026046491
2023-03-12T17:51:17.515Z,97821.38925470147
2023-03-12T17:54:17.185Z,97823.4993435131
2023-03-12T17:57:17.341Z,97825.73718362479
2023-03-12T18:01:17.496Z,97834.82519551783
2023-03-12T18:04:17.451Z,97841.06759823013
2023-03-12T18:07:17.431Z,97851.44845204028
2023-03-12T18:11:16.378Z,97860.78576676747
2023-03-12T18:14:17.071Z,97866.72766763983
2023-03-12T18:17:16.916Z,97873.24961055495
2023-03-12T18:21:16.159Z,97882.40435218281
2023-03-12T18:24:16.628Z,97896.45235889779
2023-03-12T18:27:16.504Z,97903.57527141925
2023-03-12T18:31:16.480Z,97908.2739122674
2023-03-12T18:34:16.983Z,97906.7153053043
2023-03-12T18:37:17.242Z,97915.99836858221
2023-03-12T18:41:17.059Z,97935.7476840102
2023-03-12T18:44:17.354Z,97943.37463706544
2023-03-12T18:47:17.433Z,97949.22693007294
2023-03-12T18:51:16.804Z,97959.83529068273
2023-03-12T18:54:17.282Z,97962.76821240224
2023-03-12T18:57:17.178Z,97974.18514057464
2023-03-12T19:01:16.663Z,97983.44841926279
2023-03-12T19:04:18.635Z,97986.92918724612
2023-03-12T19:07:18.374Z,97994.25059560542
2023-03-12T19:11:17.411Z,98001.83233342314
2023-03-12T19:14:17.427Z,98009.51560446095
2023-03-12T19:17:17.606Z,98007.16771634223
2023-03-12T19:21:17.303Z,98006.58011702647
2023-03-12T19:24:17.227Z,98014.05448175219
2023-03-12T19:27:17.371Z,98016.09374776456
2023-03-12T19:31:17.237Z,98017.38191408747
2023-03-12T19:34:17.789Z,98022.31029599198
2023-03-12T19:37:17.748Z,98025.4961522001
2023-03-12T19:41:17.789Z,98039.58610196882
2023-03-12T19:44:17.958Z,98043.69052813212
2023-03-12T19:47:18.341Z,98052.1194079403
2023-03-12T19:51:17.044Z,98054.64697675065
2023-03-12T19:54:17.419Z,98061.85836154527
2023-03-12T19:57:18.861Z,98067.98627273919
2023-03-12T20:01:16.334Z,98084.39621618798
2023-03-12T20:04:16.774Z,98086.01456906712
2023-03-12T20:07:18.396Z,98090.72457002797
2023-03-12T20:11:16.399Z,98099.5332308726
2023-03-12T20:14:16.869Z,98098.44268057277
2023-03-12T20:17:16.897Z,98106.48674010743
2023-03-12T20:21:17.427Z,98119.72318778692
2023-03-12T20:24:17.148Z,98127.7548770691
2023-03-12T20:27:17.071Z,98129.450822958
2023-03-12T20:31:16.991Z,98140.99205792848
2023-03-12T20:34:17.224Z,98140.37744290638
2023-03-12T20:37:16.952Z,98141.5683977613
2023-03-12T20:41:16.333Z,98148.26340963546
2023-03-12T20:44:17.298Z,98161.28227631099
2023-03-12T20:47:16.733Z,98167.32816933165
2023-03-12T20:51:17.768Z,98168.82115257063
2023-03-12T20:54:17.462Z,98169.97654759909
2023-03-12T20:57:17.716Z,98181.92827091031
2023-03-12T21:01:17.433Z,98190.7575946768
2023-03-12T21:04:17.781Z,98200.45027943164
2023-03-12T21:07:17.696Z,98200.54964722566
2023-03-12T21:11:16.694Z,98206.16386446865
2023-03-12T21:14:17.523Z,98213.3918032095
2023-03-12T21:17:17.294Z,98212.77561150354
2023-03-12T21:21:16.705Z,98218.40252854253
2023-03-12T21:24:16.993Z,98218.20298710333
2023-03-12T21:27:16.792Z,98225.75034223734
2023-03-12T21:31:17.324Z,98228.4301888683
2023-03-12T21:34:17.170Z,98236.39635986299
2023-03-12T21:37:17.043Z,98233.02175594577
2023-03-12T21:41:18.575Z,98243.48390528279
2023-03-12T21:44:17.251Z,98236.58605438002
2023-03-12T21:47:17.125Z,98235.74730453981
2023-03-12T21:51:18.049Z,98228.68112228697
2023-03-12T21:54:16.835Z,98235.22919937116
2023-03-12T21:57:16.916Z,98239.46692093952
2023-03-12T22:01:18.178Z,98239.73611537476
2023-03-12T22:04:17.218Z,98239.20482640748
2023-03-12T22:07:17.178Z,98238.03564450551
2023-03-12T22:11:17.330Z,98233.28994876062
2023-03-12T22:14:17.692Z,98242.138124494
2023-03-12T22:17:17.941Z,98244.92590276057
2023-03-12T22:21:18.782Z,98242.085805677
2023-03-12T22:24:16.757Z,98237.57979236993
2023-03-12T22:27:16.735Z,98238.2301892051
2023-03-12T22:31:18.221Z,98232.11840414547
2023-03-12T22:34:17.551Z,98228.78591296346
2023-03-12T22:37:18.007Z,98227.79712588647
2023-03-12T22:41:19.080Z,98225.73823011084
2023-03-12T22:44:17.248Z,98229.81928820949
2023-03-12T22:47:17.148Z,98227.23727136901
2023-03-12T22:51:16.734Z,98240.68274596719
2023-03-12T22:54:17.084Z,98243.01012602463
2023-03-12T22:57:17.111Z,98236.81984812758
2023-03-12T23:01:18.977Z,98236.13364476469
2023-03-12T23:04:17.215Z,98235.149686827
2023-03-12T23:07:18.065Z,98236.01145501822
2023-03-12T23:11:18.037Z,98242.05528595061
2023-03-12T23:14:17.451Z,98243.32265314035
2023-03-12T23:17:17.208Z,98244.82936701733
2023-03-12T23:21:19.340Z,98254.37532198816
2023-03-12T23:24:17.223Z,98255.47886572024
2023-03-12T23:27:17.358Z,98258.56303120217
2023-03-12T23:31:16.928Z,98253.14952933489
2023-03-12T23:34:17.420Z,98258.3420954615
2023-03-12T23:37:16.882Z,98259.54961644826
2023-03-12T23:41:18.900Z,98258.58022612527
2023-03-12T23:44:17.617Z,98261.89531383257
2023-03-12T23:47:17.349Z,98261.8735699992
2023-03-12T23:51:19.241Z,98273.40865054257
2023-03-12T23:54:17.111Z,98276.14103604908
2023-03-12T23:57:17.004Z,98276.08823669303
